createdAt,value
2023-03-29T00:02:20.043Z,47.25
2023-03-29T00:04:47.413Z,53.75
2023-03-29T00:07:14.726Z,51.25
2023-03-29T00:09:42.734Z,57.50
2023-03-29T00:12:11.729Z,48.50
2023-03-29T00:14:38.691Z,52.00
2023-03-29T00:17:06.726Z,54.00
2023-03-29T00:19:36.828Z,49.00
2023-03-29T00:22:06.176Z,48.25
2023-03-29T00:24:33.405Z,49.00
2023-03-29T00:27:01.148Z,38.75
2023-03-29T00:29:28.368Z,47.00
2023-03-29T00:31:56.242Z,37.50
2023-03-29T00:34:25.122Z,43.50
2023-03-29T00:36:53.283Z,45.00
2023-03-29T00:39:24.199Z,30.75
2023-03-29T00:41:51.788Z,46.75
2023-03-29T00:44:53.096Z,48.75
2023-03-29T00:47:25.667Z,47.00
2023-03-29T00:49:53.521Z,34.50
2023-03-29T00:52:21.862Z,55.25
2023-03-29T00:54:56.334Z,45.25
2023-03-29T00:57:25.876Z,47.75
2023-03-29T00:59:55.731Z,41.00
2023-03-29T01:02:27.039Z,53.50
2023-03-29T01:05:17.595Z,51.50
2023-03-29T01:07:54.171Z,46.25
2023-03-29T01:10:26.526Z,33.50
2023-03-29T01:12:58.679Z,47.25
2023-03-29T01:15:27.903Z,55.50
2023-03-29T01:17:58.335Z,54.25
2023-03-29T01:20:30.995Z,58.50
2023-03-29T01:23:26.986Z,37.50
2023-03-29T01:26:01.888Z,51.50
2023-03-29T01:28:37.430Z,49.25
2023-03-29T01:31:08.925Z,44.00
2023-03-29T01:33:41.818Z,48.00
2023-03-29T01:36:30.904Z,46.00
2023-03-29T01:39:00.986Z,45.25
2023-03-29T01:41:50.635Z,55.50
2023-03-29T01:44:39.708Z,49.50
2023-03-29T01:47:36.644Z,41.00
2023-03-29T01:50:20.382Z,51.50
2023-03-29T01:52:52.764Z,52.50
2023-03-29T01:55:36.154Z,52.00
2023-03-29T01:58:05.061Z,59.00
2023-03-29T02:00:34.421Z,54.50
2023-03-29T02:03:06.123Z,48.25
2023-03-29T02:05:34.712Z,54.00
2023-03-29T02:08:03.686Z,48.75
2023-03-29T02:10:32.454Z,50.00
2023-03-29T02:12:59.907Z,49.50
2023-03-29T02:15:27.354Z,48.50
2023-03-29T02:17:54.965Z,33.25
2023-03-29T02:20:28.772Z,28.50
2023-03-29T02:22:56.329Z,33.00
2023-03-29T02:25:24.671Z,33.25
2023-03-29T02:27:52.996Z,36.50
2023-03-29T02:30:21.236Z,32.50
2023-03-29T02:32:57.518Z,32.50
2023-03-29T02:35:34.788Z,34.50
2023-03-29T02:38:09.084Z,40.50
2023-03-29T02:40:37.802Z,55.50
2023-03-29T02:43:07.170Z,57.75
2023-03-29T02:45:36.686Z,53.50
2023-03-29T02:48:06.719Z,30.75
2023-03-29T02:50:38.090Z,51.25
2023-03-29T02:53:14.179Z,54.50
2023-03-29T02:55:41.613Z,51.50
2023-03-29T02:58:08.630Z,52.00
2023-03-29T03:00:44.816Z,61.75
2023-03-29T03:03:12.758Z,68.50
2023-03-29T03:05:40.107Z,58.75
2023-03-29T03:08:07.764Z,57.25
2023-03-29T03:10:35.769Z,52.50
2023-03-29T03:13:03.062Z,54.50
2023-03-29T03:15:31.408Z,45.25
2023-03-29T03:17:58.732Z,46.50
2023-03-29T03:20:26.655Z,47.50
2023-03-29T03:22:53.556Z,52.25
2023-03-29T03:25:21.414Z,58.00
2023-03-29T03:27:49.880Z,137.50
2023-03-29T03:30:17.823Z,84.75
2023-03-29T03:32:44.978Z,90.00
2023-03-29T03:35:12.564Z,69.25
2023-03-29T03:37:40.528Z,78.00
2023-03-29T03:40:09.323Z,77.25
2023-03-29T03:42:36.257Z,110.50
2023-03-29T03:45:03.795Z,75.00
2023-03-29T03:47:31.030Z,86.25
2023-03-29T03:49:58.433Z,71.50
2023-03-29T03:52:25.468Z,32.25
2023-03-29T03:54:53.047Z,54.25
2023-03-29T03:57:19.953Z,54.50
2023-03-29T03:59:47.813Z,64.50
2023-03-29T04:02:15.778Z,9.25
2023-03-29T04:04:43.094Z,110.50
2023-03-29T04:07:13.190Z,130.25
2023-03-29T04:09:40.570Z,90.00
2023-03-29T04:12:07.652Z,76.00
2023-03-29T04:14:35.749Z,77.50
2023-03-29T04:17:02.784Z,71.25
2023-03-29T04:19:29.975Z,63.00
2023-03-29T04:21:57.016Z,65.50
2023-03-29T04:24:25.182Z,68.00
2023-03-29T04:26:52.081Z,39.25
2023-03-29T04:29:19.493Z,58.75
2023-03-29T04:31:46.593Z,51.50
2023-03-29T04:34:13.830Z,60.25
2023-03-29T04:36:40.976Z,64.25
2023-03-29T04:39:08.445Z,38.00
2023-03-29T04:41:35.455Z,69.75
2023-03-29T04:44:02.764Z,63.50
2023-03-29T04:46:30.365Z,72.00
2023-03-29T04:48:58.862Z,66.50
2023-03-29T04:51:25.965Z,70.25
2023-03-29T04:53:53.426Z,56.00
2023-03-29T04:56:23.404Z,64.50
2023-03-29T04:58:51.357Z,66.50
2023-03-29T05:01:18.934Z,69.50
2023-03-29T05:03:46.300Z,72.00
2023-03-29T05:06:13.625Z,65.75
2023-03-29T05:08:41.475Z,68.75
2023-03-29T05:11:11.848Z,65.00
2023-03-29T05:13:39.460Z,59.00
2023-03-29T05:16:07.877Z,56.00
2023-03-29T05:18:35.893Z,56.50
2023-03-29T05:21:05.141Z,60.25
2023-03-29T05:23:32.891Z,66.25
2023-03-29T05:26:00.426Z,66.50
2023-03-29T05:28:27.786Z,59.25
2023-03-29T05:31:06.024Z,69.75
2023-03-29T05:33:33.865Z,69.00
2023-03-29T05:36:02.243Z,64.00
2023-03-29T05:38:35.193Z,69.25
2023-03-29T05:41:02.509Z,71.25
2023-03-29T05:43:29.804Z,69.00
2023-03-29T05:45:57.240Z,74.00
2023-03-29T05:48:25.496Z,61.75
2023-03-29T05:50:53.807Z,66.00
2023-03-29T05:53:22.947Z,67.25
2023-03-29T05:55:51.338Z,83.25
2023-03-29T05:58:20.337Z,80.25
2023-03-29T06:00:49.906Z,76.75
2023-03-29T06:03:21.534Z,70.50
2023-03-29T06:05:50.634Z,75.50
2023-03-29T06:08:17.893Z,70.50
2023-03-29T06:10:45.557Z,71.00
2023-03-29T06:13:12.971Z,70.00
2023-03-29T06:15:40.309Z,47.50
2023-03-29T06:18:08.059Z,72.00
2023-03-29T06:20:35.251Z,75.50
2023-03-29T06:23:02.606Z,66.25
2023-03-29T06:25:30.152Z,62.00
2023-03-29T06:27:57.895Z,61.25
2023-03-29T06:30:25.092Z,43.75
2023-03-29T06:32:52.660Z,59.00
2023-03-29T06:35:20.901Z,51.00
2023-03-29T06:37:50.933Z,46.00
2023-03-29T06:40:19.290Z,44.50
2023-03-29T06:42:47.882Z,39.50
2023-03-29T06:45:15.058Z,34.00
2023-03-29T06:47:42.592Z,29.75
2023-03-29T06:50:11.837Z,34.25
2023-03-29T06:52:39.086Z,48.50
2023-03-29T06:55:07.914Z,53.75
2023-03-29T06:57:35.680Z,35.50
2023-03-29T07:00:14.272Z,26.50
2023-03-29T07:02:42.951Z,28.00
2023-03-29T07:05:13.668Z,21.00
2023-03-29T07:07:55.535Z,25.25
2023-03-29T07:10:43.376Z,37.00
2023-03-29T07:13:14.712Z,49.00
2023-03-29T07:15:42.339Z,34.75
2023-03-29T07:18:10.157Z,25.75
2023-03-29T07:20:39.132Z,31.50
2023-03-29T07:23:08.154Z,27.25
2023-03-29T07:25:35.620Z,29.50
2023-03-29T07:28:03.750Z,27.50
2023-03-29T07:30:32.405Z,34.00
2023-03-29T07:33:00.586Z,24.00
2023-03-29T07:35:27.988Z,31.00
2023-03-29T07:37:56.100Z,23.50
2023-03-29T07:40:23.910Z,25.75
2023-03-29T07:42:54.654Z,17.25
2023-03-29T07:45:26.460Z,27.25
2023-03-29T07:47:56.649Z,21.75
2023-03-29T07:50:24.388Z,20.25
2023-03-29T07:52:51.669Z,14.25
2023-03-29T07:55:19.108Z,24.25
2023-03-29T07:57:46.628Z,23.00
2023-03-29T08:00:17.667Z,19.00
2023-03-29T08:02:46.960Z,21.50
2023-03-29T08:05:19.001Z,16.25
2023-03-29T08:07:51.350Z,18.00
2023-03-29T08:10:20.368Z,29.00
2023-03-29T08:12:48.893Z,18.25
2023-03-29T08:15:16.836Z,24.50
2023-03-29T08:17:44.826Z,17.00
2023-03-29T08:20:13.925Z,13.50
2023-03-29T08:22:41.520Z,17.50
2023-03-29T08:25:09.380Z,15.25
2023-03-29T08:27:37.825Z,5.75
2023-03-29T08:30:07.243Z,22.50
2023-03-29T08:32:34.703Z,15.25
2023-03-29T08:35:04.008Z,18.50
2023-03-29T08:37:32.827Z,39.50
2023-03-29T08:40:01.059Z,40.50
2023-03-29T08:42:42.110Z,30.50
2023-03-29T08:45:12.388Z,11.75
2023-03-29T08:48:08.759Z,19.50
2023-03-29T08:50:39.575Z,7.75
2023-03-29T08:53:41.945Z,9.00
2023-03-29T08:56:13.793Z,8.50
2023-03-29T08:58:41.675Z,5.50
2023-03-29T09:01:11.587Z,3.75
2023-03-29T09:03:48.663Z,4.25
2023-03-29T09:06:16.809Z,3.00
2023-03-29T09:08:46.760Z,4.50
2023-03-29T09:11:38.789Z,3.50
2023-03-29T09:14:24.339Z,5.50
2023-03-29T09:17:03.663Z,5.75
2023-03-29T09:19:43.134Z,7.50
2023-03-29T09:22:16.390Z,2.00
2023-03-29T09:24:47.014Z,2.00
2023-03-29T09:27:24.756Z,10.50
2023-03-29T09:30:06.328Z,12.25
2023-03-29T09:32:43.336Z,18.50
2023-03-29T09:35:18.543Z,2.50
2023-03-29T09:37:46.971Z,27.50
2023-03-29T09:40:31.443Z,5.50
2023-03-29T09:42:58.810Z,17.00
2023-03-29T09:45:26.640Z,1.00
2023-03-29T09:48:09.376Z,3.25
2023-03-29T09:50:39.302Z,1.00
2023-03-29T09:53:06.814Z,9.25
2023-03-29T09:55:36.772Z,1.00
2023-03-29T09:58:16.237Z,3.00
2023-03-29T10:00:45.138Z,3.00
2023-03-29T10:03:24.485Z,1.25
2023-03-29T10:05:55.612Z,5.50
2023-03-29T10:08:28.493Z,3.25
2023-03-29T10:11:00.480Z,1.00
2023-03-29T10:13:36.927Z,2.00
2023-03-29T10:16:04.810Z,2.00
2023-03-29T10:18:33.229Z,2.00
2023-03-29T10:21:03.756Z,2.50
2023-03-29T10:23:37.857Z,1.00
2023-03-29T10:26:09.495Z,2.75
2023-03-29T10:28:36.997Z,2.50
2023-03-29T10:31:08.470Z,5.25
2023-03-29T10:33:36.509Z,2.00
2023-03-29T10:36:07.132Z,1.00
2023-03-29T10:38:36.166Z,2.00
2023-03-29T10:41:11.769Z,1.00
2023-03-29T10:43:43.674Z,0.00
2023-03-29T10:46:36.344Z,3.00
2023-03-29T10:49:12.073Z,3.00
2023-03-29T10:51:45.212Z,2.00
2023-03-29T10:54:15.164Z,2.25
2023-03-29T10:56:47.385Z,4.00
2023-03-29T10:59:14.596Z,1.25
2023-03-29T11:02:03.805Z,2.00
2023-03-29T11:04:37.455Z,3.00
2023-03-29T11:07:31.913Z,11.25
2023-03-29T11:10:27.229Z,3.50
2023-03-29T11:13:03.853Z,6.00
2023-03-29T11:16:00.101Z,6.75
2023-03-29T11:18:27.937Z,7.50
2023-03-29T11:21:13.880Z,17.25
2023-03-29T11:23:41.850Z,8.00
2023-03-29T11:26:25.131Z,7.00
2023-03-29T11:29:19.797Z,14.25
2023-03-29T11:31:58.114Z,8.50
2023-03-29T11:34:35.048Z,4.00
2023-03-29T11:37:43.223Z,6.00
2023-03-29T11:40:21.476Z,3.75
2023-03-29T11:42:52.590Z,4.00
2023-03-29T11:45:32.935Z,5.50
2023-03-29T11:48:01.003Z,5.00
2023-03-29T11:50:47.052Z,8.00
2023-03-29T11:53:22.289Z,6.00
2023-03-29T11:55:51.703Z,6.00
2023-03-29T11:58:31.237Z,7.00
2023-03-29T12:01:03.154Z,8.00
2023-03-29T12:03:38.786Z,7.75
2023-03-29T12:06:34.154Z,16.00
2023-03-29T12:09:31.790Z,15.75
2023-03-29T12:12:09.729Z,6.25
2023-03-29T12:14:49.778Z,7.00
2023-03-29T12:17:25.294Z,11.75
2023-03-29T12:20:13.576Z,14.75
2023-03-29T12:22:41.063Z,14.75
2023-03-29T12:25:14.700Z,6.25
2023-03-29T12:28:06.977Z,12.75
2023-03-29T12:30:56.251Z,2.75
2023-03-29T12:33:36.209Z,21.50
2023-03-29T12:36:31.956Z,11.00
2023-03-29T12:38:59.721Z,3.50
2023-03-29T12:41:35.714Z,8.50
2023-03-29T12:44:04.148Z,8.00
2023-03-29T12:46:35.544Z,12.00
2023-03-29T12:49:28.304Z,13.00
2023-03-29T12:51:57.609Z,18.75
2023-03-29T12:54:28.905Z,10.00
2023-03-29T12:57:01.223Z,5.50
2023-03-29T12:59:39.954Z,6.00
2023-03-29T13:02:14.075Z,15.75
2023-03-29T13:05:00.568Z,5.33
2023-03-29T13:07:28.896Z,7.75
2023-03-29T13:10:03.607Z,18.25
2023-03-29T13:12:42.466Z,3.25
2023-03-29T13:15:17.101Z,16.50
2023-03-29T13:18:04.104Z,10.75
2023-03-29T13:20:59.543Z,4.00
2023-03-29T13:24:04.043Z,8.00
2023-03-29T13:26:57.164Z,5.00
2023-03-29T13:29:50.886Z,4.67
2023-03-29T13:32:27.306Z,4.00
2023-03-29T13:35:13.172Z,4.00
2023-03-29T13:37:57.270Z,5.00
2023-03-29T13:40:44.074Z,3.00
2023-03-29T13:43:19.607Z,3.33
2023-03-29T13:46:04.504Z,6.00
2023-03-29T13:48:57.194Z,4.00
2023-03-29T13:51:32.907Z,7.67
2023-03-29T13:54:15.156Z,6.67
2023-03-29T13:57:05.627Z,5.00
2023-03-29T13:59:48.356Z,7.00
2023-03-29T14:02:41.844Z,4.00
2023-03-29T14:05:13.351Z,0.00
2023-03-29T14:07:47.610Z,4.67
2023-03-29T14:10:18.696Z,4.00
2023-03-29T14:12:46.832Z,3.00
2023-03-29T14:15:28.863Z,4.00
2023-03-29T14:18:00.331Z,6.67
2023-03-29T14:20:31.029Z,5.00
2023-03-29T14:22:58.346Z,7.00
2023-03-29T14:25:25.955Z,4.67
2023-03-29T14:27:52.974Z,2.67
2023-03-29T14:30:24.355Z,7.00
2023-03-29T14:32:52.517Z,4.00
2023-03-29T14:35:21.915Z,3.00
2023-03-29T14:37:49.503Z,5.67
2023-03-29T14:40:20.002Z,4.00
2023-03-29T14:42:48.814Z,8.00
2023-03-29T14:45:18.102Z,8.50
2023-03-29T14:47:46.362Z,10.50
2023-03-29T14:50:19.637Z,3.00
2023-03-29T14:52:51.758Z,5.00
2023-03-29T14:55:23.956Z,8.25
2023-03-29T14:57:54.779Z,6.33
2023-03-29T15:00:22.770Z,4.67
2023-03-29T15:02:55.461Z,8.00
2023-03-29T15:05:37.362Z,6.67
2023-03-29T15:08:07.882Z,3.67
2023-03-29T15:10:37.116Z,2.33
2023-03-29T15:13:05.670Z,2.67
2023-03-29T15:15:38.666Z,5.00
2023-03-29T15:18:07.214Z,5.67
2023-03-29T15:20:38.871Z,8.00
2023-03-29T15:23:15.266Z,10.75
2023-03-29T15:26:06.683Z,15.75
2023-03-29T15:28:35.844Z,10.25
2023-03-29T15:31:10.805Z,5.00
2023-03-29T15:33:39.969Z,12.00
2023-03-29T15:36:09.875Z,13.50
2023-03-29T15:38:43.964Z,8.25
2023-03-29T15:41:14.215Z,9.25
2023-03-29T15:43:42.114Z,10.25
2023-03-29T15:46:14.227Z,10.75
2023-03-29T15:48:42.198Z,5.00
2023-03-29T15:51:12.680Z,8.00
2023-03-29T15:53:40.383Z,6.50
2023-03-29T15:56:29.634Z,9.00
2023-03-29T15:58:59.139Z,10.25
2023-03-29T16:01:39.398Z,14.50
2023-03-29T16:04:20.055Z,14.00
2023-03-29T16:06:50.160Z,10.75
2023-03-29T16:09:17.414Z,10.25
2023-03-29T16:11:45.728Z,22.50
2023-03-29T16:14:21.145Z,12.25
2023-03-29T16:16:49.184Z,9.75
2023-03-29T16:19:16.749Z,20.00
2023-03-29T16:21:45.186Z,11.25
2023-03-29T16:24:32.532Z,15.75
2023-03-29T16:27:01.870Z,24.25
2023-03-29T16:29:29.335Z,18.25
2023-03-29T16:31:57.403Z,27.75
2023-03-29T16:34:25.323Z,15.00
2023-03-29T16:36:53.202Z,16.50
2023-03-29T16:39:20.467Z,8.00
2023-03-29T16:41:49.216Z,11.50
2023-03-29T16:44:20.178Z,14.25
2023-03-29T16:46:50.912Z,19.25
2023-03-29T16:49:18.863Z,34.50
2023-03-29T16:51:47.361Z,19.50
2023-03-29T16:54:15.340Z,7.00
2023-03-29T16:56:42.883Z,29.00
2023-03-29T16:59:10.137Z,36.75
2023-03-29T17:01:38.788Z,46.50
2023-03-29T17:04:06.165Z,52.50
2023-03-29T17:06:33.418Z,44.50
2023-03-29T17:09:00.870Z,48.50
2023-03-29T17:11:29.030Z,37.25
2023-03-29T17:13:56.135Z,11.75
2023-03-29T17:16:24.116Z,33.25
2023-03-29T17:18:51.198Z,31.75
2023-03-29T17:21:18.652Z,28.75
2023-03-29T17:23:46.616Z,40.75
2023-03-29T17:26:14.385Z,42.25
2023-03-29T17:28:41.784Z,38.00
2023-03-29T17:31:09.733Z,40.75
2023-03-29T17:33:37.132Z,37.75
2023-03-29T17:36:05.852Z,40.00
2023-03-29T17:38:34.452Z,29.50
2023-03-29T17:41:03.020Z,45.75
2023-03-29T17:43:30.533Z,44.75
2023-03-29T17:45:58.265Z,42.75
2023-03-29T17:48:25.816Z,47.75
2023-03-29T17:50:55.802Z,48.75
2023-03-29T17:53:23.032Z,49.25
2023-03-29T17:55:50.427Z,48.00
2023-03-29T17:58:17.375Z,47.00
2023-03-29T18:00:45.294Z,47.75
2023-03-29T18:03:12.340Z,53.75
2023-03-29T18:05:39.732Z,46.00
2023-03-29T18:08:10.095Z,47.75
2023-03-29T18:10:37.444Z,38.75
2023-03-29T18:13:04.615Z,39.25
2023-03-29T18:15:32.058Z,42.00
2023-03-29T18:17:59.172Z,42.75
2023-03-29T18:20:26.443Z,36.25
2023-03-29T18:22:53.637Z,33.50
2023-03-29T18:25:20.935Z,38.00
2023-03-29T18:27:48.004Z,30.50
2023-03-29T18:30:16.924Z,35.00
2023-03-29T18:32:44.249Z,39.50
2023-03-29T18:35:12.216Z,40.50
2023-03-29T18:37:39.506Z,41.50
2023-03-29T18:40:10.631Z,40.25
2023-03-29T18:42:37.736Z,38.25
2023-03-29T18:45:05.975Z,44.00
2023-03-29T18:47:33.383Z,40.00
2023-03-29T18:50:02.498Z,40.25
2023-03-29T18:52:29.582Z,30.75
2023-03-29T18:54:56.946Z,29.75
2023-03-29T18:57:24.057Z,31.50
2023-03-29T18:59:52.138Z,29.00
2023-03-29T19:02:19.346Z,28.50
2023-03-29T19:04:46.704Z,24.25
2023-03-29T19:07:14.210Z,28.00
2023-03-29T19:09:42.007Z,24.75
2023-03-29T19:12:09.330Z,32.25
2023-03-29T19:14:38.551Z,25.75
2023-03-29T19:17:05.564Z,19.25
2023-03-29T19:19:32.850Z,19.25
2023-03-29T19:22:00.681Z,16.50
2023-03-29T19:24:28.801Z,20.00
2023-03-29T19:26:56.626Z,17.25
2023-03-29T19:29:24.214Z,15.00
2023-03-29T19:31:54.245Z,19.75
2023-03-29T19:34:24.678Z,20.25
2023-03-29T19:36:53.591Z,23.50
2023-03-29T19:39:21.214Z,21.25
2023-03-29T19:41:48.490Z,34.00
2023-03-29T19:44:16.289Z,30.50
2023-03-29T19:46:43.369Z,35.00
2023-03-29T19:49:13.797Z,29.00
2023-03-29T19:51:42.174Z,30.50
2023-03-29T19:54:12.211Z,27.75
2023-03-29T19:56:39.256Z,23.25
2023-03-29T19:59:07.018Z,27.00
2023-03-29T20:01:34.017Z,16.50
2023-03-29T20:04:02.636Z,24.75
2023-03-29T20:06:29.911Z,23.25
2023-03-29T20:08:57.817Z,21.00
2023-03-29T20:11:25.001Z,21.50
2023-03-29T20:13:53.001Z,18.50
2023-03-29T20:16:20.098Z,22.75
2023-03-29T20:18:47.464Z,20.25
2023-03-29T20:21:16.843Z,27.25
2023-03-29T20:23:44.983Z,27.75
2023-03-29T20:26:12.197Z,20.75
2023-03-29T20:28:39.732Z,24.00
2023-03-29T20:31:08.153Z,20.50
2023-03-29T20:33:35.550Z,23.25
2023-03-29T20:36:03.341Z,27.75
2023-03-29T20:38:30.791Z,22.50
2023-03-29T20:40:59.205Z,29.50
2023-03-29T20:43:26.650Z,29.25
2023-03-29T20:45:54.525Z,24.00
2023-03-29T20:48:24.387Z,27.25
2023-03-29T20:50:51.951Z,21.00
2023-03-29T20:53:20.820Z,28.50
2023-03-29T20:55:48.351Z,21.50
2023-03-29T20:58:16.150Z,27.00
2023-03-29T21:00:43.816Z,22.25
2023-03-29T21:03:11.503Z,16.50
2023-03-29T21:05:39.212Z,24.00
2023-03-29T21:08:06.556Z,23.00
2023-03-29T21:10:33.562Z,27.25
2023-03-29T21:13:02.856Z,20.25
2023-03-29T21:15:31.237Z,3.00
2023-03-29T21:17:58.984Z,28.25
2023-03-29T21:20:27.730Z,37.00
2023-03-29T21:22:54.985Z,21.25
2023-03-29T21:25:22.447Z,32.75
2023-03-29T21:27:49.998Z,37.25
2023-03-29T21:30:17.332Z,28.00
2023-03-29T21:32:45.403Z,22.00
2023-03-29T21:35:13.364Z,25.50
2023-03-29T21:37:41.071Z,23.75
2023-03-29T21:40:10.792Z,24.75
2023-03-29T21:42:38.711Z,32.50
2023-03-29T21:45:06.142Z,30.25
2023-03-29T21:47:37.869Z,29.75
2023-03-29T21:50:05.817Z,26.00
2023-03-29T21:52:33.148Z,24.75
2023-03-29T21:55:00.359Z,30.00
2023-03-29T21:57:27.938Z,25.00
2023-03-29T21:59:54.856Z,24.00
2023-03-29T22:02:22.366Z,19.75
2023-03-29T22:04:49.622Z,24.50
2023-03-29T22:07:17.409Z,18.75
2023-03-29T22:09:44.765Z,25.75
2023-03-29T22:12:12.394Z,35.50
2023-03-29T22:14:39.452Z,23.00
2023-03-29T22:17:07.056Z,15.00
2023-03-29T22:19:39.248Z,25.50
2023-03-29T22:22:13.967Z,22.25
2023-03-29T22:24:42.321Z,22.25
2023-03-29T22:27:11.228Z,25.50
2023-03-29T22:29:38.195Z,18.25
2023-03-29T22:32:06.050Z,35.75
2023-03-29T22:34:33.370Z,35.25
2023-03-29T22:37:00.671Z,28.25
2023-03-29T22:39:27.753Z,32.00
2023-03-29T22:41:54.969Z,42.75
2023-03-29T22:44:21.993Z,44.75
2023-03-29T22:46:49.656Z,55.25
2023-03-29T22:49:17.688Z,54.25
2023-03-29T22:51:44.915Z,41.25
2023-03-29T22:54:12.283Z,50.00
2023-03-29T22:56:39.527Z,47.50
2023-03-29T22:59:06.702Z,46.50
2023-03-29T23:01:34.292Z,42.00
2023-03-29T23:04:01.408Z,38.25
2023-03-29T23:06:28.767Z,40.00
2023-03-29T23:08:56.155Z,40.25
2023-03-29T23:11:23.489Z,37.25
2023-03-29T23:13:50.991Z,36.50
2023-03-29T23:16:21.367Z,41.50
2023-03-29T23:18:48.671Z,28.25
2023-03-29T23:21:16.334Z,44.25
2023-03-29T23:23:43.710Z,40.25
2023-03-29T23:26:11.973Z,41.00
2023-03-29T23:28:38.974Z,41.75
2023-03-29T23:31:13.040Z,39.50
2023-03-29T23:33:42.757Z,39.75
2023-03-29T23:36:13.817Z,41.25
2023-03-29T23:38:42.517Z,41.50
2023-03-29T23:41:12.909Z,43.00
2023-03-29T23:43:41.929Z,46.00
2023-03-29T23:46:15.403Z,41.50
2023-03-29T23:48:47.358Z,39.25
2023-03-29T23:51:18.210Z,41.50
2023-03-29T23:53:45.351Z,41.50
2023-03-29T23:56:13.316Z,43.25
2023-03-29T23:58:40.312Z,45.25
